sensor_id;sensor_type;location;lat;lon;timestamp;pressure;altitude;pressure_sealevel;temperature;humidity
25638;BME280;13496;51.040;13.680;2022-10-16T00:02:52;99528.28;;;20.26;54.40
25638;BME280;13496;51.040;13.680;2022-10-16T00:07:54;99530.28;;;20.24;54.04
25638;BME280;13496;51.040;13.680;2022-10-16T00:12:56;99522.38;;;20.24;54.29
25638;BME280;13496;51.040;13.680;2022-10-16T00:17:58;99540.03;;;20.24;54.06
25638;BME280;13496;51.040;13.680;2022-10-16T00:23:00;99536.41;;;20.25;53.94
25638;BME280;13496;51.040;13.680;2022-10-16T00:28:02;99541.66;;;20.25;54.12
25638;BME280;13496;51.040;13.680;2022-10-16T00:33:04;99540.81;;;20.24;54.16
25638;BME280;13496;51.040;13.680;2022-10-16T00:38:05;99537.59;;;20.22;54.09
25638;BME280;13496;51.040;13.680;2022-10-16T00:48:38;99563.94;;;20.22;53.97
25638;BME280;13496;51.040;13.680;2022-10-16T00:53:39;99572.25;;;20.19;54.19
25638;BME280;13496;51.040;13.680;2022-10-16T00:58:41;99568.59;;;20.20;53.82
25638;BME280;13496;51.040;13.680;2022-10-16T01:03:43;99563.31;;;20.20;54.25
25638;BME280;13496;51.040;13.680;2022-10-16T01:13:58;99569.63;;;20.19;54.19
25638;BME280;13496;51.040;13.680;2022-10-16T01:19:26;99566.19;;;20.19;53.93
25638;BME280;13496;51.040;13.680;2022-10-16T01:24:38;99575.09;;;20.18;54.26
25638;BME280;13496;51.040;13.680;2022-10-16T01:29:48;99578.72;;;20.17;53.83
25638;BME280;13496;51.040;13.680;2022-10-16T01:34:56;99574.69;;;20.14;53.80
25638;BME280;13496;51.040;13.680;2022-10-16T01:40:03;99589.47;;;20.15;54.13
25638;BME280;13496;51.040;13.680;2022-10-16T01:45:07;99586.03;;;20.15;54.11
25638;BME280;13496;51.040;13.680;2022-10-16T01:50:14;99583.41;;;20.15;53.81
25638;BME280;13496;51.040;13.680;2022-10-16T01:55:24;99569.03;;;20.11;53.85
25638;BME280;13496;51.040;13.680;2022-10-16T02:00:28;99572.47;;;20.11;53.91
25638;BME280;13496;51.040;13.680;2022-10-16T02:05:44;99570.00;;;20.10;53.87
25638;BME280;13496;51.040;13.680;2022-10-16T02:10:47;99584.03;;;20.10;53.80
25638;BME280;13496;51.040;13.680;2022-10-16T02:15:49;99587.66;;;20.09;53.92
25638;BME280;13496;51.040;13.680;2022-10-16T02:20:56;99590.28;;;20.09;53.85
25638;BME280;13496;51.040;13.680;2022-10-16T02:25:59;99592.91;;;20.09;53.96
25638;BME280;13496;51.040;13.680;2022-10-16T02:31:09;99587.06;;;20.07;53.92
25638;BME280;13496;51.040;13.680;2022-10-16T02:36:13;99581.78;;;20.07;53.84
25638;BME280;13496;51.040;13.680;2022-10-16T02:41:14;99594.94;;;20.07;53.99
25638;BME280;13496;51.040;13.680;2022-10-16T02:46:17;99589.06;;;20.05;53.90
25638;BME280;13496;51.040;13.680;2022-10-16T02:51:19;99591.50;;;20.06;53.89
25638;BME280;13496;51.040;13.680;2022-10-16T02:56:21;99585.44;;;20.06;53.95
25638;BME280;13496;51.040;13.680;2022-10-16T03:01:23;99574.91;;;20.06;54.01
25638;BME280;13496;51.040;13.680;2022-10-16T03:06:25;99577.72;;;20.04;54.18
25638;BME280;13496;51.040;13.680;2022-10-16T03:11:26;99582.19;;;20.04;54.11
25638;BME280;13496;51.040;13.680;2022-10-16T03:16:30;99588.25;;;20.04;53.87
25638;BME280;13496;51.040;13.680;2022-10-16T03:21:32;99602.44;;;20.03;54.05
25638;BME280;13496;51.040;13.680;2022-10-16T03:26:33;99600.00;;;20.02;53.79
25638;BME280;13496;51.040;13.680;2022-10-16T03:31:35;99604.28;;;20.03;53.69
25638;BME280;13496;51.040;13.680;2022-10-16T03:36:37;99609.53;;;20.03;53.99
25638;BME280;13496;51.040;13.680;2022-10-16T03:41:38;99608.91;;;20.01;53.68
25638;BME280;13496;51.040;13.680;2022-10-16T03:46:40;99615.19;;;20.00;53.87
25638;BME280;13496;51.040;13.680;2022-10-16T03:51:42;99617.03;;;19.99;53.81
25638;BME280;13496;51.040;13.680;2022-10-16T03:56:44;99616.00;;;20.00;53.99
25638;BME280;13496;51.040;13.680;2022-10-16T04:01:45;99619.84;;;19.98;53.83
25638;BME280;13496;51.040;13.680;2022-10-16T04:06:47;99634.66;;;19.99;54.11
25638;BME280;13496;51.040;13.680;2022-10-16T04:11:49;99633.22;;;19.96;53.81
25638;BME280;13496;51.040;13.680;2022-10-16T04:16:50;99646.38;;;19.96;53.78
25638;BME280;13496;51.040;13.680;2022-10-16T04:21:52;99655.09;;;19.97;54.01
25638;BME280;13496;51.040;13.680;2022-10-16T04:26:54;99638.66;;;19.95;53.64
25638;BME280;13496;51.040;13.680;2022-10-16T04:31:55;99640.50;;;19.94;53.77
25638;BME280;13496;51.040;13.680;2022-10-16T04:36:57;99657.09;;;19.95;53.77
25638;BME280;13496;51.040;13.680;2022-10-16T04:41:59;99657.09;;;19.95;53.69
25638;BME280;13496;51.040;13.680;2022-10-16T04:47:01;99653.88;;;19.93;54.09
25638;BME280;13496;51.040;13.680;2022-10-16T04:52:03;99661.78;;;19.93;54.19
25638;BME280;13496;51.040;13.680;2022-10-16T04:57:04;99647.00;;;19.92;53.93
25638;BME280;13496;51.040;13.680;2022-10-16T05:02:06;99645.97;;;19.93;53.92
25638;BME280;13496;51.040;13.680;2022-10-16T05:07:08;99658.13;;;19.94;53.75
25638;BME280;13496;51.040;13.680;2022-10-16T05:12:09;99663.59;;;19.92;53.91
25638;BME280;13496;51.040;13.680;2022-10-16T05:17:12;99658.50;;;19.91;54.00
25638;BME280;13496;51.040;13.680;2022-10-16T05:22:14;99664.41;;;19.93;53.84
25638;BME280;13496;51.040;13.680;2022-10-16T05:27:16;99677.38;;;19.94;53.65
25638;BME280;13496;51.040;13.680;2022-10-16T05:32:20;99674.72;;;19.94;53.82
25638;BME280;13496;51.040;13.680;2022-10-16T05:37:22;99674.72;;;19.94;53.91
25638;BME280;13496;51.040;13.680;2022-10-16T05:42:23;99673.31;;;19.92;54.12
25638;BME280;13496;51.040;13.680;2022-10-16T05:47:25;99682.84;;;19.93;53.92
25638;BME280;13496;51.040;13.680;2022-10-16T05:52:27;99696.00;;;19.93;53.74
25638;BME280;13496;51.040;13.680;2022-10-16T05:57:29;99713.41;;;19.94;54.07
25638;BME280;13496;51.040;13.680;2022-10-16T06:02:31;99697.63;;;19.94;54.08
25638;BME280;13496;51.040;13.680;2022-10-16T06:07:35;99702.88;;;19.94;53.96
25638;BME280;13496;51.040;13.680;2022-10-16T06:12:37;99707.75;;;19.97;53.88
25638;BME280;13496;51.040;13.680;2022-10-16T06:17:39;99720.72;;;19.98;53.68
25638;BME280;13496;51.040;13.680;2022-10-16T06:22:41;99729.47;;;19.99;53.96
25638;BME280;13496;51.040;13.680;2022-10-16T06:27:42;99736.34;;;20.00;53.58
25638;BME280;13496;51.040;13.680;2022-10-16T06:32:44;99736.34;;;20.00;53.87
25638;BME280;13496;51.040;13.680;2022-10-16T06:37:46;99750.13;;;20.02;53.89
25638;BME280;13496;51.040;13.680;2022-10-16T06:42:47;99749.94;;;20.03;53.71
25638;BME280;13496;51.040;13.680;2022-10-16T06:47:49;99752.34;;;20.05;53.66
25638;BME280;13496;51.040;13.680;2022-10-16T06:52:51;99762.09;;;20.04;53.52
25638;BME280;13496;51.040;13.680;2022-10-16T06:57:53;99762.09;;;20.04;53.84
25638;BME280;13496;51.040;13.680;2022-10-16T07:02:54;99774.06;;;20.07;53.61
25638;BME280;13496;51.040;13.680;2022-10-16T07:07:56;99780.34;;;20.06;53.60
25638;BME280;13496;51.040;13.680;2022-10-16T07:12:58;99773.44;;;20.05;53.59
25638;BME280;13496;51.040;13.680;2022-10-16T07:18:00;99773.84;;;20.09;53.59
25638;BME280;13496;51.040;13.680;2022-10-16T07:23:01;99795.72;;;20.09;53.75
25638;BME280;13496;51.040;13.680;2022-10-16T07:28:03;99818.44;;;20.10;53.99
25638;BME280;13496;51.040;13.680;2022-10-16T07:33:05;99821.25;;;20.09;53.53
25638;BME280;13496;51.040;13.680;2022-10-16T07:38:06;99841.53;;;20.08;53.82
25638;BME280;13496;51.040;13.680;2022-10-16T07:43:08;99834.63;;;20.07;53.60
25638;BME280;13496;51.040;13.680;2022-10-16T07:48:10;99855.91;;;20.12;53.42
25638;BME280;13496;51.040;13.680;2022-10-16T07:53:12;99851.28;;;20.14;53.51
25638;BME280;13496;51.040;13.680;2022-10-16T07:58:14;99852.09;;;20.15;53.73
25638;BME280;13496;51.040;13.680;2022-10-16T08:03:16;99848.44;;;20.16;53.83
25638;BME280;13496;51.040;13.680;2022-10-16T08:08:18;99822.91;;;20.16;53.56
25638;BME280;13496;51.040;13.680;2022-10-16T08:13:21;99825.53;;;20.16;53.22
25638;BME280;13496;51.040;13.680;2022-10-16T08:18:23;99847.25;;;20.18;53.75
25638;BME280;13496;51.040;13.680;2022-10-16T08:23:25;99831.88;;;20.22;53.42
25638;BME280;13496;51.040;13.680;2022-10-16T08:28:27;99835.50;;;20.27;53.37
25638;BME280;13496;51.040;13.680;2022-10-16T08:33:29;99842.84;;;20.39;53.36
25638;BME280;13496;51.040;13.680;2022-10-16T08:38:31;99857.03;;;20.38;53.34
25638;BME280;13496;51.040;13.680;2022-10-16T08:44:06;99849.78;;;20.40;53.54
25638;BME280;13496;51.040;13.680;2022-10-16T08:49:11;99848.41;;;20.50;53.32
25638;BME280;13496;51.040;13.680;2022-10-16T08:59:16;99830.09;;;22.66;48.46
25638;BME280;13496;51.040;13.680;2022-10-16T09:09:49;99824.31;;;24.61;44.25
25638;BME280;13496;51.040;13.680;2022-10-16T09:15:20;99818.44;;;25.60;42.55
25638;BME280;13496;51.040;13.680;2022-10-16T09:25:30;99838.38;;;25.04;43.16
25638;BME280;13496;51.040;13.680;2022-10-16T09:30:33;99841.19;;;24.00;45.07
25638;BME280;13496;51.040;13.680;2022-10-16T09:40:41;99845.06;;;22.41;48.62
25638;BME280;13496;51.040;13.680;2022-10-16T09:45:56;99860.00;;;22.15;49.51
25638;BME280;13496;51.040;13.680;2022-10-16T09:51:00;99851.56;;;21.73;50.33
25638;BME280;13496;51.040;13.680;2022-10-16T09:56:02;99865.56;;;21.81;50.33
25638;BME280;13496;51.040;13.680;2022-10-16T10:01:13;99871.59;;;22.01;49.74
25638;BME280;13496;51.040;13.680;2022-10-16T10:11:36;99861.69;;;21.77;50.38
25638;BME280;13496;51.040;13.680;2022-10-16T10:16:38;99878.56;;;21.82;50.62
25638;BME280;13496;51.040;13.680;2022-10-16T10:21:39;99899.47;;;21.84;50.66
25638;BME280;13496;51.040;13.680;2022-10-16T10:32:19;99893.59;;;21.82;50.61
25638;BME280;13496;51.040;13.680;2022-10-16T10:53:53;99904.94;;;22.02;50.85
25638;BME280;13496;51.040;13.680;2022-10-16T10:59:27;99906.34;;;22.11;50.52
25638;BME280;13496;51.040;13.680;2022-10-16T11:09:52;99898.66;;;22.03;50.78
25638;BME280;13496;51.040;13.680;2022-10-16T11:15:05;99918.13;;;22.02;50.75
25638;BME280;13496;51.040;13.680;2022-10-16T11:20:22;99908.78;;;22.06;50.62
25638;BME280;13496;51.040;13.680;2022-10-16T11:25:30;99917.53;;;22.07;50.67
25638;BME280;13496;51.040;13.680;2022-10-16T11:30:49;99903.50;;;22.06;50.72
25638;BME280;13496;51.040;13.680;2022-10-16T11:41:27;99916.13;;;21.91;51.51
25638;BME280;13496;51.040;13.680;2022-10-16T11:46:31;99916.34;;;21.89;51.58
25638;BME280;13496;51.040;13.680;2022-10-16T11:56:45;99937.66;;;21.94;51.43
25638;BME280;13496;51.040;13.680;2022-10-16T12:01:53;99936.28;;;21.92;51.67
25638;BME280;13496;51.040;13.680;2022-10-16T12:07:06;99930.34;;;22.16;51.18
25638;BME280;13496;51.040;13.680;2022-10-16T12:12:37;99935.63;;;22.23;51.15
25638;BME280;13496;51.040;13.680;2022-10-16T12:17:39;99928.91;;;22.20;50.94
25638;BME280;13496;51.040;13.680;2022-10-16T12:22:51;99938.47;;;22.08;51.28
25638;BME280;13496;51.040;13.680;2022-10-16T12:27:58;99932.38;;;22.01;51.67
25638;BME280;13496;51.040;13.680;2022-10-16T12:38:31;99932.97;;;22.16;51.48
25638;BME280;13496;51.040;13.680;2022-10-16T12:43:40;99951.47;;;22.16;51.52
25638;BME280;13496;51.040;13.680;2022-10-16T12:48:44;99958.59;;;22.22;51.16
25638;BME280;13496;51.040;13.680;2022-10-16T12:54:01;99960.81;;;22.12;51.65
25638;BME280;13496;51.040;13.680;2022-10-16T12:59:28;99955.94;;;22.22;51.56
25638;BME280;13496;51.040;13.680;2022-10-16T13:05:08;99965.28;;;22.12;51.85
25638;BME280;13496;51.040;13.680;2022-10-16T13:10:28;99962.44;;;22.13;51.84
25638;BME280;13496;51.040;13.680;2022-10-16T13:20:56;99964.72;;;22.03;52.24
25638;BME280;13496;51.040;13.680;2022-10-16T13:31:23;99956.78;;;22.03;52.41
25638;BME280;13496;51.040;13.680;2022-10-16T13:36:29;99952.94;;;21.99;52.34
25638;BME280;13496;51.040;13.680;2022-10-16T13:41:31;99971.41;;;21.99;52.68
25638;BME280;13496;51.040;13.680;2022-10-16T13:46:33;99973.03;;;22.00;52.52
25638;BME280;13496;51.040;13.680;2022-10-16T13:51:35;99983.59;;;22.00;52.77
25638;BME280;13496;51.040;13.680;2022-10-16T13:56:38;99976.50;;;22.01;52.57
25638;BME280;13496;51.040;13.680;2022-10-16T14:01:42;99985.84;;;21.96;52.91
25638;BME280;13496;51.040;13.680;2022-10-16T14:06:46;99988.09;;;21.99;52.77
25638;BME280;13496;51.040;13.680;2022-10-16T14:11:53;99986.03;;;21.95;52.87
25638;BME280;13496;51.040;13.680;2022-10-16T14:16:56;99994.19;;;21.93;52.76
25638;BME280;13496;51.040;13.680;2022-10-16T14:21:59;100003.94;;;21.93;53.06
25638;BME280;13496;51.040;13.680;2022-10-16T14:27:33;99995.38;;;21.91;53.25
25638;BME280;13496;51.040;13.680;2022-10-16T14:32:35;99994.38;;;21.92;53.18
25638;BME280;13496;51.040;13.680;2022-10-16T14:37:36;99990.91;;;21.91;53.17
25638;BME280;13496;51.040;13.680;2022-10-16T14:42:43;99992.56;;;21.92;53.32
25638;BME280;13496;51.040;13.680;2022-10-16T14:47:54;99999.47;;;21.93;53.10
25638;BME280;13496;51.040;13.680;2022-10-16T14:52:58;100004.34;;;21.90;53.65
25638;BME280;13496;51.040;13.680;2022-10-16T14:57:59;100007.59;;;21.92;53.29
25638;BME280;13496;51.040;13.680;2022-10-16T15:03:02;100012.25;;;21.90;53.54
25638;BME280;13496;51.040;13.680;2022-10-16T15:08:03;100032.19;;;21.92;53.48
25638;BME280;13496;51.040;13.680;2022-10-16T15:13:06;100035.00;;;21.91;53.52
25638;BME280;13496;51.040;13.680;2022-10-16T15:18:07;100043.75;;;21.91;53.22
25638;BME280;13496;51.040;13.680;2022-10-16T15:23:18;100050.06;;;21.90;53.24
25638;BME280;13496;51.040;13.680;2022-10-16T15:28:22;100053.50;;;21.91;53.34
25638;BME280;13496;51.040;13.680;2022-10-16T15:33:28;100052.50;;;21.92;53.46
25638;BME280;13496;51.040;13.680;2022-10-16T15:38:34;100062.44;;;21.90;53.23
25638;BME280;13496;51.040;13.680;2022-10-16T15:43:38;100065.31;;;21.88;53.51
25638;BME280;13496;51.040;13.680;2022-10-16T15:48:39;100069.78;;;21.88;53.36
25638;BME280;13496;51.040;13.680;2022-10-16T15:53:41;100070.59;;;21.88;53.61
25638;BME280;13496;51.040;13.680;2022-10-16T15:58:43;100077.50;;;21.89;53.10
25638;BME280;13496;51.040;13.680;2022-10-16T16:03:45;100081.97;;;21.89;53.48
25638;BME280;13496;51.040;13.680;2022-10-16T16:08:46;100079.50;;;21.87;53.26
25638;BME280;13496;51.040;13.680;2022-10-16T16:13:48;100089.28;;;21.87;53.54
25638;BME280;13496;51.040;13.680;2022-10-16T16:18:52;100094.38;;;21.88;53.41
25638;BME280;13496;51.040;13.680;2022-10-16T16:23:54;100090.06;;;21.87;53.48
25638;BME280;13496;51.040;13.680;2022-10-16T16:28:56;100098.63;;;21.89;53.35
25638;BME280;13496;51.040;13.680;2022-10-16T16:33:58;100123.63;;;21.93;53.31
25638;BME280;13496;51.040;13.680;2022-10-16T16:39:00;100133.38;;;21.93;53.10
25638;BME280;13496;51.040;13.680;2022-10-16T16:44:07;100144.97;;;21.92;53.45
25638;BME280;13496;51.040;13.680;2022-10-16T16:49:13;100147.81;;;21.90;53.24
25638;BME280;13496;51.040;13.680;2022-10-16T16:54:16;100155.94;;;21.89;53.20
25638;BME280;13496;51.040;13.680;2022-10-16T16:59:19;100162.44;;;21.86;53.34
25638;BME280;13496;51.040;13.680;2022-10-16T17:04:23;100172.81;;;21.88;53.45
25638;BME280;13496;51.040;13.680;2022-10-16T17:09:24;100178.09;;;21.88;53.47
25638;BME280;13496;51.040;13.680;2022-10-16T17:14:26;100181.31;;;21.83;53.44
25638;BME280;13496;51.040;13.680;2022-10-16T17:19:28;100188.03;;;21.86;53.31
25638;BME280;13496;51.040;13.680;2022-10-16T17:24:30;100187.63;;;21.82;53.44
25638;BME280;13496;51.040;13.680;2022-10-16T17:29:31;100200.00;;;21.82;53.54
25638;BME280;13496;51.040;13.680;2022-10-16T17:34:33;100195.34;;;21.77;53.58
25638;BME280;13496;51.040;13.680;2022-10-16T17:39:36;100194.69;;;21.75;53.69
25638;BME280;13496;51.040;13.680;2022-10-16T17:44:37;100206.72;;;21.78;53.74
25638;BME280;13496;51.040;13.680;2022-10-16T17:49:39;100217.28;;;21.78;53.61
25638;BME280;13496;51.040;13.680;2022-10-16T17:54:41;100225.19;;;21.78;53.43
25638;BME280;13496;51.040;13.680;2022-10-16T17:59:44;100229.66;;;21.77;53.67
25638;BME280;13496;51.040;13.680;2022-10-16T18:04:46;100240.41;;;21.75;53.60
25638;BME280;13496;51.040;13.680;2022-10-16T18:09:48;100245.91;;;21.74;53.61
25638;BME280;13496;51.040;13.680;2022-10-16T18:14:50;100252.00;;;21.74;53.62
25638;BME280;13496;51.040;13.680;2022-10-16T18:19:53;100258.31;;;21.73;53.56
25638;BME280;13496;51.040;13.680;2022-10-16T18:24:55;100268.88;;;21.73;53.53
25638;BME280;13496;51.040;13.680;2022-10-16T18:29:59;100277.78;;;21.72;53.66
25638;BME280;13496;51.040;13.680;2022-10-16T18:35:01;100279.44;;;21.73;53.66
25638;BME280;13496;51.040;13.680;2022-10-16T18:40:03;100289.78;;;21.75;53.78
25638;BME280;13496;51.040;13.680;2022-10-16T18:45:06;100287.53;;;21.72;53.73
25638;BME280;13496;51.040;13.680;2022-10-16T18:50:08;100279.00;;;21.70;53.63
25638;BME280;13496;51.040;13.680;2022-10-16T18:55:09;100282.47;;;21.70;53.81
25638;BME280;13496;51.040;13.680;2022-10-16T19:00:11;100272.91;;;21.69;53.65
25638;BME280;13496;51.040;13.680;2022-10-16T19:05:13;100285.47;;;21.67;53.76
25638;BME280;13496;51.040;13.680;2022-10-16T19:10:15;100271.66;;;21.65;53.64
25638;BME280;13496;51.040;13.680;2022-10-16T19:15:17;100285.88;;;21.64;53.93
25638;BME280;13496;51.040;13.680;2022-10-16T19:20:19;100297.06;;;21.66;53.95
25638;BME280;13496;51.040;13.680;2022-10-16T19:25:21;100306.19;;;21.64;54.09
25638;BME280;13496;51.040;13.680;2022-10-16T19:30:23;100301.72;;;21.64;53.69
25638;BME280;13496;51.040;13.680;2022-10-16T19:35:25;100312.47;;;21.63;53.82
25638;BME280;13496;51.040;13.680;2022-10-16T19:40:27;100315.31;;;21.61;53.69
25638;BME280;13496;51.040;13.680;2022-10-16T19:45:29;100324.06;;;21.62;53.75
25638;BME280;13496;51.040;13.680;2022-10-16T19:50:31;100326.88;;;21.60;53.99
25638;BME280;13496;51.040;13.680;2022-10-16T19:55:33;100325.25;;;21.59;54.04
25638;BME280;13496;51.040;13.680;2022-10-16T20:00:34;100330.53;;;21.59;53.96
25638;BME280;13496;51.040;13.680;2022-10-16T20:05:36;100328.91;;;21.58;54.03
25638;BME280;13496;51.040;13.680;2022-10-16T20:10:47;100323.63;;;21.58;53.93
25638;BME280;13496;51.040;13.680;2022-10-16T20:15:48;100329.09;;;21.57;54.05
25638;BME280;13496;51.040;13.680;2022-10-16T20:20:50;100324.03;;;21.55;53.88
25638;BME280;13496;51.040;13.680;2022-10-16T20:25:53;100330.94;;;21.56;54.12
25638;BME280;13496;51.040;13.680;2022-10-16T20:30:55;100335.38;;;21.56;53.95
25638;BME280;13496;51.040;13.680;2022-10-16T20:35:57;100343.50;;;21.54;54.16
25638;BME280;13496;51.040;13.680;2022-10-16T20:41:02;100349.63;;;21.55;53.73
25638;BME280;13496;51.040;13.680;2022-10-16T20:46:05;100347.97;;;21.54;53.92
25638;BME280;13496;51.040;13.680;2022-10-16T20:51:32;100354.25;;;21.53;53.95
25638;BME280;13496;51.040;13.680;2022-10-16T20:56:34;100357.72;;;21.53;54.06
25638;BME280;13496;51.040;13.680;2022-10-16T21:01:36;100361.38;;;21.52;54.11
25638;BME280;13496;51.040;13.680;2022-10-16T21:06:38;100375.38;;;21.53;53.79
25638;BME280;13496;51.040;13.680;2022-10-16T21:11:40;100381.69;;;21.52;53.71
25638;BME280;13496;51.040;13.680;2022-10-16T21:16:42;100385.50;;;21.49;54.14
25638;BME280;13496;51.040;13.680;2022-10-16T21:21:43;100389.78;;;21.50;54.09
25638;BME280;13496;51.040;13.680;2022-10-16T21:26:45;100390.78;;;21.49;54.03
25638;BME280;13496;51.040;13.680;2022-10-16T21:31:47;100397.09;;;21.48;53.79
25638;BME280;13496;51.040;13.680;2022-10-16T21:36:49;100397.25;;;21.46;54.09
25638;BME280;13496;51.040;13.680;2022-10-16T21:41:50;100399.09;;;21.46;53.75
25638;BME280;13496;51.040;13.680;2022-10-16T21:46:52;100408.84;;;21.45;54.16
25638;BME280;13496;51.040;13.680;2022-10-16T21:51:54;100408.84;;;21.45;54.11
25638;BME280;13496;51.040;13.680;2022-10-16T21:56:56;100410.03;;;21.43;53.98
25638;BME280;13496;51.040;13.680;2022-10-16T22:01:58;100407.59;;;21.41;53.89
25638;BME280;13496;51.040;13.680;2022-10-16T22:07:01;100401.50;;;21.41;53.93
25638;BME280;13496;51.040;13.680;2022-10-16T22:12:02;100398.22;;;21.39;54.05
25638;BME280;13496;51.040;13.680;2022-10-16T22:17:04;100402.50;;;21.40;53.81
25638;BME280;13496;51.040;13.680;2022-10-16T22:22:06;100413.06;;;21.40;53.74
25638;BME280;13496;51.040;13.680;2022-10-16T22:27:08;100415.06;;;21.38;53.98
25638;BME280;13496;51.040;13.680;2022-10-16T22:32:09;100421.16;;;21.38;54.16
25638;BME280;13496;51.040;13.680;2022-10-16T22:37:11;100431.91;;;21.37;54.15
25638;BME280;13496;51.040;13.680;2022-10-16T22:42:13;100420.34;;;21.38;53.97
25638;BME280;13496;51.040;13.680;2022-10-16T22:47:15;100420.94;;;21.33;53.66
25638;BME280;13496;51.040;13.680;2022-10-16T22:52:17;100412.81;;;21.35;53.79
25638;BME280;13496;51.040;13.680;2022-10-16T22:57:19;100418.09;;;21.35;53.79
25638;BME280;13496;51.040;13.680;2022-10-16T23:02:21;100418.44;;;21.32;53.81
25638;BME280;13496;51.040;13.680;2022-10-16T23:07:22;100426.34;;;21.32;54.15
25638;BME280;13496;51.040;13.680;2022-10-16T23:12:24;100434.25;;;21.32;53.99
25638;BME280;13496;51.040;13.680;2022-10-16T23:17:26;100428.97;;;21.32;53.67
25638;BME280;13496;51.040;13.680;2022-10-16T23:22:28;100430.19;;;21.29;54.00
25638;BME280;13496;51.040;13.680;2022-10-16T23:27:29;100438.94;;;21.30;54.12
25638;BME280;13496;51.040;13.680;2022-10-16T23:32:32;100447.03;;;21.28;54.12
25638;BME280;13496;51.040;13.680;2022-10-16T23:37:34;100441.75;;;21.28;54.00
25638;BME280;13496;51.040;13.680;2022-10-16T23:42:35;100449.84;;;21.26;53.67
25638;BME280;13496;51.040;13.680;2022-10-16T23:47:37;100445.59;;;21.25;54.10
25638;BME280;13496;51.040;13.680;2022-10-16T23:52:39;100443.94;;;21.24;53.72
25638;BME280;13496;51.040;13.680;2022-10-16T23:57:40;100444.13;;;21.23;53.72
